Time;durP1;ratioP1;P1;durP2;ratioP2;P2;SDS_P1;SDS_P2;PMS_P1;PMS_P2;Temp;Humidity;BMP_temperature;BMP_pressure;BME280_temperature;BME280_humidity;BME280_pressure;Samples;Min_cycle;Max_cycle;Signal;HPM_P1;HPM_P2
2022/01/21 00:00:21;;;;;;;16.60;4.70;;;;;;;0.09;96.17;103356.88;5086624;28;20155;-79
2022/01/21 00:02:47;;;;;;;21.90;5.15;;;;;;;0.08;95.94;103357.75;5089737;28;20082;-80
2022/01/21 00:05:12;;;;;;;22.80;5.00;;;;;;;0.08;95.96;103355.16;5089130;28;20085;-79
2022/01/21 00:07:38;;;;;;;24.70;5.10;;;;;;;0.07;96.19;103349.13;5073858;28;20056;-79
2022/01/21 00:10:05;;;;;;;24.10;4.65;;;;;;;0.08;96.52;103365.50;5068792;28;20021;-80
2022/01/21 00:12:32;;;;;;;22.73;5.47;;;;;;;0.07;96.59;103363.78;5067638;28;20082;-79
2022/01/21 00:14:57;;;;;;;22.13;4.97;;;;;;;0.07;96.12;103363.78;5086644;28;20020;-79
2022/01/21 00:17:24;;;;;;;29.27;5.13;;;;;;;0.07;96.50;103366.38;5086167;28;20035;-79
2022/01/21 00:30:01;;;;;;;24.45;4.82;;;;;;;0.02;96.37;103366.31;5087772;28;20024;-79
2022/01/21 00:30:58;;;;;;;21.05;5.90;;;;;;;-0.02;96.33;103370.56;5051116;28;20515;-79
2022/01/21 00:33:23;;;;;;;22.25;5.80;;;;;;;-0.03;96.51;103367.97;5088590;28;20119;-80
2022/01/21 00:35:49;;;;;;;23.40;5.10;;;;;;;-0.07;96.15;103361.03;5087627;28;20044;-80
2022/01/21 00:38:14;;;;;;;26.83;5.28;;;;;;;-0.05;96.67;103359.31;5081886;28;20028;-79
2022/01/21 00:40:41;;;;;;;20.30;4.40;;;;;;;-0.07;95.73;103351.53;5089160;28;20020;-79
2022/01/21 00:45:32;;;;;;;25.17;4.85;;;;;;;-0.08;95.97;103347.22;5089450;28;20082;-79
2022/01/21 00:47:57;;;;;;;20.30;4.07;;;;;;;-0.07;96.07;103350.66;5089235;28;20081;-79
2022/01/21 00:50:22;;;;;;;25.02;4.00;;;;;;;-0.11;96.64;103347.19;5088177;28;20106;-79
2022/01/21 00:52:48;;;;;;;19.60;3.75;;;;;;;-0.09;96.19;103357.56;5089119;28;20024;-79
2022/01/21 00:55:13;;;;;;;19.40;4.13;;;;;;;-0.08;96.80;103357.56;5079138;28;20063;-79
2022/01/21 00:57:39;;;;;;;20.48;3.80;;;;;;;-0.09;96.52;103363.59;5088778;28;20024;-79
2022/01/21 01:00:08;;;;;;;25.45;3.90;;;;;;;-0.10;96.96;103367.03;5074224;28;20036;-79
2022/01/21 01:02:34;;;;;;;24.38;3.90;;;;;;;-0.15;96.81;103353.19;5068774;28;20546;-79
2022/01/21 01:04:59;;;;;;;17.02;3.47;;;;;;;-0.12;97.16;103366.16;5067225;28;20029;-79
2022/01/21 01:07:25;;;;;;;17.58;3.58;;;;;;;-0.10;97.10;103371.34;5082098;28;20035;-79
2022/01/21 01:09:53;;;;;;;16.90;3.55;;;;;;;-0.11;97.15;103375.66;5089511;28;20062;-79
2022/01/21 01:12:33;;;;;;;19.85;3.40;;;;;;;-0.13;97.00;103374.75;5086666;28;20024;-79
2022/01/21 01:20:26;;;;;;;17.17;3.15;;;;;;;-0.19;96.81;103355.72;5088300;28;20071;-79
2022/01/21 01:22:56;;;;;;;20.75;3.70;;;;;;;-0.18;96.68;103358.31;5104228;28;20051;-79
2022/01/21 01:28:06;;;;;;;17.05;4.28;;;;;;;-0.21;96.44;103362.59;5092524;28;20042;-79
2022/01/21 01:30:33;;;;;;;19.83;3.90;;;;;;;-0.24;96.00;103353.09;5107220;28;20027;-79
2022/01/21 01:33:01;;;;;;;17.13;3.75;;;;;;;-0.25;96.52;103353.94;5090256;28;20043;-78
2022/01/21 01:35:33;;;;;;;15.80;3.55;;;;;;;-0.24;96.93;103363.44;5091131;28;20141;-79
2022/01/21 01:40:31;;;;;;;20.25;3.85;;;;;;;-0.25;96.72;103347.91;5090785;28;20070;-79
2022/01/21 01:50:52;;;;;;;19.45;3.75;;;;;;;-0.27;96.96;103354.78;5091440;28;20557;-79
2022/01/21 01:53:26;;;;;;;14.32;3.17;;;;;;;-0.29;97.05;103352.19;5090895;28;20132;-79
2022/01/21 01:55:51;;;;;;;16.80;3.20;;;;;;;-0.29;97.01;103356.47;5092273;28;20403;-79
2022/01/21 01:58:17;;;;;;;15.23;3.10;;;;;;;-0.30;96.64;103347.00;5092007;28;20020;-78
2022/01/21 02:00:43;;;;;;;16.30;3.55;;;;;;;-0.31;97.12;103348.69;5091298;28;20016;-78
2022/01/21 02:03:13;;;;;;;14.35;3.40;;;;;;;-0.33;97.04;103347.81;5092358;28;20495;-78
2022/01/21 02:05:40;;;;;;;13.23;3.45;;;;;;;-0.35;97.01;103344.34;5090794;28;20249;-78
2022/01/21 02:08:06;;;;;;;22.77;3.70;;;;;;;-0.39;96.72;103334.81;5089005;28;20416;-78
2022/01/21 02:10:34;;;;;;;13.05;3.42;;;;;;;-0.41;96.40;103341.66;5090362;28;20028;-78
2022/01/21 02:13:38;;;;;;;19.38;3.45;;;;;;;-0.40;96.35;103346.88;5091763;28;20127;-79
2022/01/21 02:15:58;;;;;;;21.90;3.10;;;;;;;-0.41;96.18;103347.69;5087934;28;20034;-78
2022/01/21 02:21:36;;;;;;;15.02;3.75;;;;;;;-0.43;96.57;103353.72;5091555;28;20507;-78
2022/01/21 02:24:22;;;;;;;11.75;3.10;;;;;;;-0.47;97.03;103345.06;5089475;28;20077;-78
2022/01/21 02:26:51;;;;;;;14.65;3.72;;;;;;;-0.48;96.75;103343.31;5077976;28;20028;-78
2022/01/21 02:29:27;;;;;;;13.50;3.35;;;;;;;-0.50;97.00;103346.72;5088524;28;20499;-78
2022/01/21 02:31:53;;;;;;;19.17;3.90;;;;;;;-0.53;96.74;103339.81;5073330;28;20052;-78
2022/01/21 02:34:19;;;;;;;13.52;3.55;;;;;;;-0.54;96.96;103337.22;5070173;28;20032;-78
2022/01/21 02:36:44;;;;;;;11.48;3.38;;;;;;;-0.55;96.64;103332.88;5067441;28;20105;-78
2022/01/21 02:39:10;;;;;;;12.63;3.38;;;;;;;-0.54;96.77;103332.03;5068879;28;20031;-78
2022/01/21 02:41:36;;;;;;;17.27;4.18;;;;;;;-0.54;97.36;103337.22;5069435;28;20028;-78
2022/01/21 02:44:01;;;;;;;18.20;3.83;;;;;;;-0.57;97.11;103342.34;5084992;28;20032;-78
2022/01/21 02:46:27;;;;;;;17.65;3.72;;;;;;;-0.58;97.23;103336.31;5088135;28;20059;-78
2022/01/21 02:48:53;;;;;;;13.35;3.13;;;;;;;-0.58;97.24;103336.31;5088678;28;20555;-78
2022/01/21 02:51:19;;;;;;;13.60;3.50;;;;;;;-0.59;97.78;103344.91;5090030;28;20032;-79
2022/01/21 02:56:12;;;;;;;17.23;3.67;;;;;;;-0.60;97.13;103342.31;5089824;28;20089;-78
2022/01/21 02:58:38;;;;;;;14.98;3.65;;;;;;;-0.63;97.82;103348.31;5090224;28;20044;-78
2022/01/21 03:01:06;;;;;;;17.35;3.50;;;;;;;-0.63;96.99;103353.47;5087419;28;20023;-78
2022/01/21 03:03:32;;;;;;;16.85;3.42;;;;;;;-0.66;96.94;103359.47;5069181;28;20030;-78
2022/01/21 03:05:57;;;;;;;22.70;4.35;;;;;;;-0.64;96.89;103356.91;5068007;28;20112;-78
2022/01/21 03:08:23;;;;;;;16.98;3.88;;;;;;;-0.65;97.07;103355.19;5069659;28;20021;-79
2022/01/21 03:10:48;;;;;;;14.30;3.78;;;;;;;-0.65;97.28;103356.03;5070176;28;20078;-78
2022/01/21 03:13:15;;;;;;;17.85;3.53;;;;;;;-0.64;96.96;103354.31;5074242;28;20008;-78
2022/01/21 03:15:40;;;;;;;13.40;3.55;;;;;;;-0.65;97.29;103358.63;5088960;28;20490;-78
2022/01/21 03:18:06;;;;;;;13.93;3.90;;;;;;;-0.66;97.14;103358.63;5088984;28;20028;-77
2022/01/21 03:20:31;;;;;;;15.25;3.63;;;;;;;-0.69;97.35;103356.84;5088592;28;20042;-78
2022/01/21 03:22:59;;;;;;;16.45;3.20;;;;;;;-0.70;96.85;103365.47;5106484;28;20036;-77
2022/01/21 03:25:24;;;;;;;14.48;3.60;;;;;;;-0.72;97.11;103359.41;5089595;28;20031;-78
2022/01/21 03:27:50;;;;;;;14.13;3.30;;;;;;;-0.71;97.38;103355.09;5089704;28;20028;-78
2022/01/21 03:30:15;;;;;;;11.90;3.22;;;;;;;-0.70;96.88;103365.47;5088483;28;20050;-78
2022/01/21 03:32:41;;;;;;;19.42;3.20;;;;;;;-0.71;97.41;103368.91;5087801;28;20024;-78
2022/01/21 03:35:07;;;;;;;15.90;3.75;;;;;;;-0.69;97.18;103374.94;5088326;28;20054;-78
2022/01/21 03:37:33;;;;;;;12.80;3.17;;;;;;;-0.71;97.29;103371.47;5087098;28;20023;-77
2022/01/21 03:39:59;;;;;;;17.13;3.80;;;;;;;-0.70;97.53;103372.34;5084647;28;20036;-78
2022/01/21 03:42:24;;;;;;;17.60;3.45;;;;;;;-0.72;97.32;103380.09;5084784;28;20452;-78
2022/01/21 03:44:49;;;;;;;16.67;3.28;;;;;;;-0.75;97.47;103374.00;5087715;28;20056;-78
2022/01/21 03:47:15;;;;;;;21.60;3.63;;;;;;;-0.74;97.54;103368.00;5088396;28;20361;-78
2022/01/21 03:49:49;;;;;;;17.00;3.33;;;;;;;-0.73;97.61;103373.19;5087578;28;20027;-78
2022/01/21 03:52:14;;;;;;;11.15;3.10;;;;;;;-0.74;97.47;103370.56;5087089;28;20172;-78
2022/01/21 03:54:40;;;;;;;15.40;3.22;;;;;;;-0.76;97.79;103378.31;5087813;28;20493;-77
2022/01/21 03:57:05;;;;;;;15.80;2.97;;;;;;;-0.77;97.84;103374.00;5087874;28;20073;-77
2022/01/21 03:59:31;;;;;;;15.45;3.60;;;;;;;-0.78;97.25;103374.84;5084325;28;20790;-77
2022/01/21 04:01:56;;;;;;;13.68;3.10;;;;;;;-0.81;97.30;103363.56;5089351;28;20020;-78
2022/01/21 04:04:22;;;;;;;13.18;2.72;;;;;;;-0.79;98.26;103372.22;5087196;28;20058;-78
2022/01/21 04:06:47;;;;;;;14.68;3.15;;;;;;;-0.80;97.69;103371.38;5091168;28;20020;-77
2022/01/21 04:09:13;;;;;;;12.45;3.30;;;;;;;-0.81;97.93;103369.59;5068801;28;20427;-77
2022/01/21 04:11:38;;;;;;;15.70;3.13;;;;;;;-0.80;97.93;103373.03;5069667;28;20025;-78
2022/01/21 04:14:04;;;;;;;14.02;2.88;;;;;;;-0.79;97.70;103375.69;5078981;28;20016;-78
2022/01/21 04:16:29;;;;;;;12.10;2.85;;;;;;;-0.80;98.11;103367.88;5088097;28;20423;-77
2022/01/21 04:18:54;;;;;;;21.63;3.42;;;;;;;-0.81;98.22;103364.44;5088659;28;20028;-77
2022/01/21 04:21:21;;;;;;;14.38;3.05;;;;;;;-0.81;98.04;103374.75;5087138;28;20031;-77
2022/01/21 04:23:46;;;;;;;16.90;2.95;;;;;;;-0.84;98.08;103368.69;5089882;28;20059;-78
2022/01/21 04:26:12;;;;;;;12.85;2.83;;;;;;;-0.83;97.76;103371.28;5089316;28;20451;-78
2022/01/21 04:28:37;;;;;;;13.50;2.80;;;;;;;-0.84;97.74;103364.38;5087743;28;20063;-77
2022/01/21 04:31:02;;;;;;;14.40;2.60;;;;;;;-0.85;97.84;103375.56;5087203;28;20020;-78
2022/01/21 04:33:28;;;;;;;13.80;2.67;;;;;;;-0.85;97.69;103362.66;5078771;28;20032;-77
2022/01/21 04:35:53;;;;;;;14.00;2.40;;;;;;;-0.86;97.91;103363.50;5089112;28;20048;-77
2022/01/21 04:38:21;;;;;;;12.65;2.25;;;;;;;-0.87;98.24;103360.91;5072002;28;20029;-77
2022/01/21 04:40:58;;;;;;;16.90;2.85;;;;;;;-0.85;98.92;103366.94;5067464;28;20017;-77
2022/01/21 04:48:51;;;;;;;14.00;3.00;;;;;;;-0.82;99.29;103372.16;5070744;28;20063;-77
2022/01/21 04:51:26;;;;;;;11.38;2.30;;;;;;;-0.81;98.82;103366.13;5086898;28;20472;-77
2022/01/21 04:53:51;;;;;;;10.73;2.35;;;;;;;-0.84;99.08;103364.38;5088762;28;20024;-77
2022/01/21 04:56:17;;;;;;;11.23;2.30;;;;;;;-0.81;99.21;103368.72;5088120;28;20472;-77
2022/01/21 04:58:44;;;;;;;15.23;2.60;;;;;;;-0.81;99.75;103364.44;5088157;28;20386;-77
2022/01/21 05:01:11;;;;;;;11.13;2.72;;;;;;;-0.84;99.26;103361.81;5087285;28;20392;-77
2022/01/21 05:03:39;;;;;;;11.43;3.00;;;;;;;-0.82;98.86;103367.84;5086631;28;20031;-77
2022/01/21 05:06:05;;;;;;;12.20;2.88;;;;;;;-0.81;99.56;103359.25;5070844;28;20024;-77
2022/01/21 05:11:06;;;;;;;16.20;2.88;;;;;;;-0.79;99.96;103349.84;5070581;28;20033;-77
2022/01/21 05:13:38;;;;;;;12.23;2.90;;;;;;;-0.79;99.62;103349.84;5076165;28;20419;-77
2022/01/21 05:16:08;;;;;;;14.93;3.50;;;;;;;-0.79;99.82;103354.13;5090261;28;20468;-77
2022/01/21 05:18:34;;;;;;;16.48;3.20;;;;;;;-0.78;99.83;103353.28;5106894;28;20024;-77
2022/01/21 05:21:00;;;;;;;19.63;3.90;;;;;;;-0.78;99.89;103355.88;5091213;28;20429;-77
2022/01/21 05:23:26;;;;;;;14.07;3.40;;;;;;;-0.77;99.49;103350.72;5092574;28;20031;-77
2022/01/21 05:25:52;;;;;;;21.45;3.83;;;;;;;-0.77;99.90;103358.47;5091268;28;20020;-77
2022/01/21 05:28:17;;;;;;;17.73;3.90;;;;;;;-0.78;99.89;103354.16;5092605;28;20451;-77
2022/01/21 05:30:43;;;;;;;14.65;3.97;;;;;;;-0.77;100.00;103371.41;5090515;28;20031;-77
2022/01/21 05:33:08;;;;;;;15.02;4.20;;;;;;;-0.76;100.00;103373.13;5108583;28;20110;-77
2022/01/21 05:35:33;;;;;;;19.52;3.90;;;;;;;-0.77;99.91;103361.06;5092048;28;20067;-77
2022/01/21 05:37:59;;;;;;;13.93;3.90;;;;;;;-0.76;100.00;103359.34;5092096;28;20654;-77
2022/01/21 05:40:25;;;;;;;16.88;4.60;;;;;;;-0.74;100.00;103376.59;5090694;28;20070;-77
2022/01/21 05:42:51;;;;;;;19.75;4.60;;;;;;;-0.73;100.00;103367.13;5092266;28;20365;-77
2022/01/21 05:48:00;;;;;;;15.90;4.60;;;;;;;-0.78;100.00;103368.78;5092996;28;20039;-77
2022/01/21 05:50:25;;;;;;;21.67;5.13;;;;;;;-0.80;100.00;103366.19;5089089;28;20032;-79
2022/01/21 05:52:51;;;;;;;17.23;5.18;;;;;;;-0.80;99.99;103362.72;5091272;28;20380;-77
2022/01/21 05:55:17;;;;;;;17.40;4.75;;;;;;;-0.83;100.00;103358.38;5089662;28;20028;-77
2022/01/21 05:57:43;;;;;;;15.38;5.15;;;;;;;-0.82;100.00;103373.03;5090057;28;20024;-77
2022/01/21 06:00:10;;;;;;;16.38;5.13;;;;;;;-0.83;99.64;103367.84;5089541;28;20012;-77
2022/01/21 06:02:37;;;;;;;20.83;4.82;;;;;;;-0.82;99.68;103377.31;5089361;28;20024;-77
2022/01/21 06:05:02;;;;;;;13.10;5.40;;;;;;;-0.86;99.75;103371.25;5091112;28;20542;-77
2022/01/21 06:07:28;;;;;;;14.75;5.13;;;;;;;-0.86;99.65;103381.59;5087364;28;20035;-76
2022/01/21 06:09:53;;;;;;;14.18;5.22;;;;;;;-0.87;99.41;103379.84;5089937;28;20024;-76
2022/01/21 06:12:19;;;;;;;12.48;4.97;;;;;;;-0.90;99.06;103374.63;5090278;28;20413;-76
2022/01/21 06:14:44;;;;;;;14.15;5.18;;;;;;;-0.94;99.10;103372.88;5093032;28;20035;-76
2022/01/21 06:17:12;;;;;;;16.70;5.55;;;;;;;-0.96;99.66;103385.75;5107031;28;20031;-77
2022/01/21 06:19:37;;;;;;;13.63;5.32;;;;;;;-0.98;99.02;103387.44;5089730;28;20090;-76
2022/01/21 06:22:03;;;;;;;25.42;6.28;;;;;;;-0.97;99.59;103391.78;5090472;28;20104;-76
2022/01/21 06:24:28;;;;;;;18.55;5.93;;;;;;;-0.98;99.81;103384.00;5086713;28;20039;-77
2022/01/21 06:26:59;;;;;;;13.88;5.55;;;;;;;-0.97;99.37;103388.31;5081566;28;20487;-77
2022/01/21 06:29:24;;;;;;;20.73;7.22;;;;;;;-0.98;99.71;103386.59;5090213;28;20038;-76
2022/01/21 06:31:49;;;;;;;16.00;6.03;;;;;;;-0.96;99.96;103390.94;5072163;28;20449;-76
2022/01/21 06:34:15;;;;;;;16.98;6.78;;;;;;;-0.95;100.00;103397.84;5069727;28;20029;-76
2022/01/21 06:36:40;;;;;;;18.63;7.07;;;;;;;-0.95;100.00;103403.00;5071064;28;20049;-77
2022/01/21 06:39:05;;;;;;;23.27;7.35;;;;;;;-0.95;100.00;103415.06;5071414;28;20037;-77
2022/01/21 06:41:32;;;;;;;18.50;7.00;;;;;;;-0.94;100.00;103416.78;5069676;28;20059;-77
2022/01/21 06:43:57;;;;;;;20.95;8.07;;;;;;;-0.95;100.00;103425.38;5089470;28;20031;-77
2022/01/21 06:46:22;;;;;;;15.18;6.85;;;;;;;-0.93;100.00;103423.69;5090754;28;20024;-77
2022/01/21 06:48:48;;;;;;;21.13;7.15;;;;;;;-0.96;100.00;103421.94;5090918;28;20020;-77
2022/01/21 06:51:13;;;;;;;19.42;7.25;;;;;;;-0.93;100.00;103426.28;5090637;28;20442;-77
2022/01/21 06:53:39;;;;;;;20.98;7.55;;;;;;;-0.90;100.00;103428.03;5091023;28;20429;-77
2022/01/21 06:56:04;;;;;;;17.58;7.40;;;;;;;-0.88;100.00;103419.47;5090364;28;20092;-77
2022/01/21 06:58:29;;;;;;;18.23;8.18;;;;;;;-0.85;100.00;103435.00;5089553;28;20024;-76
2022/01/21 07:00:55;;;;;;;25.27;7.97;;;;;;;-0.84;100.00;103430.72;5091158;28;20030;-76
2022/01/21 07:03:20;;;;;;;17.98;7.97;;;;;;;-0.82;100.00;103429.88;5088463;28;20026;-77
2022/01/21 07:05:46;;;;;;;17.90;8.85;;;;;;;-0.78;100.00;103430.81;5090424;28;20051;-76
2022/01/21 07:08:15;;;;;;;22.10;9.63;;;;;;;-0.79;100.00;103435.13;5069908;28;20450;-77
2022/01/21 07:10:40;;;;;;;20.95;10.10;;;;;;;-0.72;100.00;103444.69;5068791;28;20472;-77
2022/01/21 07:13:06;;;;;;;27.73;10.10;;;;;;;-0.68;100.00;103454.25;5071369;28;20028;-77
2022/01/21 07:15:32;;;;;;;28.15;11.00;;;;;;;-0.65;100.00;103449.09;5087954;28;20070;-77
2022/01/21 07:17:58;;;;;;;30.95;10.98;;;;;;;-0.63;100.00;103454.31;5082046;28;20026;-77
2022/01/21 07:20:23;;;;;;;26.42;11.40;;;;;;;-0.57;100.00;103450.94;5097183;28;20027;-77
2022/01/21 07:22:49;;;;;;;20.95;11.02;;;;;;;-0.57;100.00;103441.47;5080251;28;20023;-77
2022/01/21 07:25:15;;;;;;;18.52;10.70;;;;;;;-0.53;100.00;103450.13;5079864;28;20042;-76
2022/01/21 07:27:41;;;;;;;21.33;10.65;;;;;;;-0.50;100.00;103447.56;5080376;28;20031;-76
2022/01/21 07:30:07;;;;;;;24.55;11.80;;;;;;;-0.47;100.00;103450.19;5078402;28;20025;-76
2022/01/21 07:32:32;;;;;;;23.75;11.98;;;;;;;-0.41;100.00;103450.28;5077985;28;20035;-76
2022/01/21 07:34:58;;;;;;;23.38;12.23;;;;;;;-0.38;100.00;103468.47;5079700;28;20114;-76
2022/01/21 07:37:23;;;;;;;19.85;11.85;;;;;;;-0.37;100.00;103468.47;5076785;28;20107;-76
2022/01/21 07:39:49;;;;;;;24.23;11.35;;;;;;;-0.32;100.00;103468.53;5078162;28;20418;-76
2022/01/21 07:42:14;;;;;;;22.25;11.65;;;;;;;-0.30;100.00;103474.59;5077450;28;20115;-76
2022/01/21 07:44:40;;;;;;;22.70;12.48;;;;;;;-0.28;100.00;103462.53;5075728;28;20062;-76
2022/01/21 07:47:05;;;;;;;25.23;12.60;;;;;;;-0.26;100.00;103462.56;5078352;28;20020;-77
2022/01/21 07:49:31;;;;;;;26.23;13.00;;;;;;;-0.24;100.00;103453.09;5079231;28;20077;-76
2022/01/21 07:51:57;;;;;;;26.15;12.93;;;;;;;-0.21;100.00;103464.38;5077992;28;20361;-77
2022/01/21 07:54:22;;;;;;;23.65;11.93;;;;;;;-0.21;100.00;103472.13;5077499;28;20024;-79
2022/01/21 07:56:48;;;;;;;19.98;11.93;;;;;;;-0.19;100.00;103466.97;5078823;28;20031;-76
2022/01/21 07:59:14;;;;;;;24.98;12.30;;;;;;;-0.19;100.00;103459.22;5081193;28;20477;-77
2022/01/21 08:01:40;;;;;;;19.08;11.55;;;;;;;-0.21;100.00;103466.94;5095659;28;20494;-76
2022/01/21 08:04:06;;;;;;;23.50;11.93;;;;;;;-0.19;100.00;103454.91;5078744;28;20051;-78
2022/01/21 08:06:32;;;;;;;21.10;12.15;;;;;;;-0.18;100.00;103448.88;5074995;28;20051;-79
2022/01/21 08:08:59;;;;;;;20.15;11.60;;;;;;;-0.18;100.00;103451.47;5080024;28;20104;-78
2022/01/21 08:11:25;;;;;;;16.60;11.95;;;;;;;-0.15;100.00;103448.91;5077524;28;20021;-78
2022/01/21 08:13:50;;;;;;;25.30;11.98;;;;;;;-0.16;100.00;103444.59;5078017;28;20037;-78
2022/01/21 08:16:17;;;;;;;18.70;11.50;;;;;;;-0.12;100.00;103442.91;5081111;28;20107;-78
2022/01/21 08:18:43;;;;;;;20.73;11.27;;;;;;;-0.09;100.00;103433.47;5083272;28;20021;-78
2022/01/21 08:21:08;;;;;;;19.25;10.43;;;;;;;-0.06;100.00;103438.66;5087795;28;20012;-78
2022/01/21 08:23:34;;;;;;;18.98;10.02;;;;;;;-0.02;100.00;103440.44;5089193;28;20024;-79
2022/01/21 08:25:59;;;;;;;20.08;10.05;;;;;;;-0.01;100.00;103439.59;5087973;28;20028;-78
2022/01/21 08:28:25;;;;;;;22.80;10.40;;;;;;;0.04;100.00;103436.22;5086509;28;20051;-78
2022/01/21 08:30:50;;;;;;;17.95;9.88;;;;;;;0.03;100.00;103431.88;5087669;28;20028;-78
2022/01/21 08:33:16;;;;;;;20.25;9.80;;;;;;;0.06;100.00;103429.31;5088417;28;20028;-78
2022/01/21 08:35:41;;;;;;;20.23;9.65;;;;;;;0.09;100.00;103426.78;5089278;28;20062;-76
2022/01/21 08:38:07;;;;;;;21.25;9.45;;;;;;;0.10;100.00;103428.50;5093194;28;20107;-76
2022/01/21 08:40:33;;;;;;;26.58;10.00;;;;;;;0.12;100.00;103444.91;5090362;28;20024;-75
2022/01/21 08:42:59;;;;;;;23.35;10.75;;;;;;;0.14;100.00;103453.56;5091528;28;20028;-75
2022/01/21 08:45:24;;;;;;;26.42;10.35;;;;;;;0.16;100.00;103454.47;5092472;28;20038;-75
2022/01/21 08:47:51;;;;;;;25.52;10.30;;;;;;;0.14;100.00;103451.84;5090978;28;20034;-75
2022/01/21 08:50:19;;;;;;;21.60;11.88;;;;;;;0.21;100.00;103445.00;5092556;28;20032;-75
2022/01/21 08:52:47;;;;;;;21.63;11.68;;;;;;;0.23;100.00;103448.50;5090902;28;20052;-75
2022/01/21 08:55:15;;;;;;;22.73;11.45;;;;;;;0.25;100.00;103449.38;5092090;28;20024;-75
2022/01/21 08:57:43;;;;;;;22.35;11.65;;;;;;;0.29;100.00;103456.31;5091303;28;20028;-75
2022/01/21 09:00:16;;;;;;;16.85;11.25;;;;;;;0.32;100.00;103458.94;5093079;28;20027;-75
2022/01/21 09:02:41;;;;;;;22.65;11.20;;;;;;;0.35;100.00;103458.09;5091897;28;20027;-78
2022/01/21 09:05:07;;;;;;;22.73;11.43;;;;;;;0.36;100.00;103463.28;5092198;28;20028;-76
2022/01/21 09:07:33;;;;;;;24.77;10.88;;;;;;;0.40;100.00;103452.16;5092437;28;20043;-76
2022/01/21 09:09:58;;;;;;;17.75;10.45;;;;;;;0.44;100.00;103440.09;5092328;28;20031;-76
2022/01/21 09:12:23;;;;;;;21.55;9.68;;;;;;;0.47;100.00;103427.16;5108179;28;20024;-76
2022/01/21 09:14:50;;;;;;;18.73;10.13;;;;;;;0.56;100.00;103430.69;5093254;28;20051;-76
2022/01/21 09:17:16;;;;;;;18.15;9.00;;;;;;;0.56;100.00;103409.97;5092011;28;20045;-75
2022/01/21 09:19:41;;;;;;;18.67;9.00;;;;;;;0.61;100.00;103413.47;5108690;28;20107;-76
2022/01/21 09:22:07;;;;;;;18.85;8.43;;;;;;;0.67;100.00;103412.66;5092967;28;20371;-76
2022/01/21 09:24:33;;;;;;;21.58;8.32;;;;;;;0.71;100.00;103408.38;5107502;28;20380;-76
2022/01/21 09:27:00;;;;;;;20.35;7.88;;;;;;;0.77;100.00;103411.00;5092923;28;20035;-76
2022/01/21 09:29:26;;;;;;;26.83;8.50;;;;;;;0.79;100.00;103410.16;5091894;28;20024;-76
2022/01/21 09:31:51;;;;;;;20.88;7.70;;;;;;;0.85;100.00;103424.91;5092240;28;20107;-76
2022/01/21 09:34:17;;;;;;;24.38;8.25;;;;;;;0.96;100.00;103432.75;5092348;28;20028;-76
2022/01/21 09:36:42;;;;;;;17.42;8.65;;;;;;;1.02;100.00;103423.31;5091938;28;20052;-76
2022/01/21 09:39:08;;;;;;;18.83;7.72;;;;;;;1.07;100.00;103426.78;5106918;28;20023;-75
2022/01/21 09:41:34;;;;;;;23.80;7.80;;;;;;;1.14;100.00;103420.78;5091179;28;20020;-76
2022/01/21 09:44:02;;;;;;;21.98;7.75;;;;;;;1.18;100.00;103435.50;5091320;28;20035;-76
2022/01/21 09:46:36;;;;;;;21.13;8.05;;;;;;;1.24;100.00;103435.56;5090453;28;20031;-76
2022/01/21 09:51:51;;;;;;;21.02;7.90;;;;;;;1.37;100.00;103444.28;5091131;28;20660;-76
2022/01/21 09:54:16;;;;;;;511.60;30.27;;;;;;;1.45;100.00;103444.31;5091666;28;20036;-77
2022/01/21 09:56:45;;;;;;;23.52;7.63;;;;;;;1.52;100.00;103454.72;5101539;28;20372;-76
2022/01/21 09:59:14;;;;;;;20.65;7.15;;;;;;;1.55;100.00;103441.78;5079810;28;20032;-76
2022/01/21 10:01:39;;;;;;;18.23;7.22;;;;;;;1.63;100.00;103454.81;5082572;28;20035;-77
2022/01/21 10:04:06;;;;;;;19.05;6.22;;;;;;;1.70;100.00;103461.78;5090304;28;20020;-77
2022/01/21 10:06:32;;;;;;;17.00;7.22;;;;;;;1.77;100.00;103468.72;5103349;28;20220;-77
2022/01/21 10:08:58;;;;;;;23.45;7.55;;;;;;;1.84;100.00;103465.28;5089874;28;20028;-78
2022/01/21 10:11:24;;;;;;;21.42;7.20;;;;;;;1.92;100.00;103467.03;5082000;28;20030;-77
2022/01/21 10:13:51;;;;;;;19.42;7.00;;;;;;;2.00;100.00;103474.03;5083427;28;20047;-78
2022/01/21 10:16:16;;;;;;;20.17;6.55;;;;;;;2.08;100.00;103479.25;5091005;28;20070;-77
2022/01/21 10:19:02;;;;;;;22.98;7.30;;;;;;;2.17;100.00;103490.53;5091928;28;20024;-75
2022/01/21 10:21:33;;;;;;;19.30;6.90;;;;;;;2.28;100.00;103487.09;5090481;28;20093;-78
2022/01/21 10:24:10;;;;;;;21.83;7.43;;;;;;;2.34;100.00;103493.16;5092263;28;20049;-78
2022/01/21 10:26:52;;;;;;;19.02;6.40;;;;;;;2.39;100.00;103493.16;5090330;28;20395;-78
2022/01/21 10:29:18;;;;;;;17.58;6.28;;;;;;;2.44;100.00;103499.28;5090842;28;20026;-78
2022/01/21 10:31:59;;;;;;;20.27;6.47;;;;;;;2.47;100.00;103486.28;5091761;28;20535;-78
2022/01/21 10:34:34;;;;;;;20.20;6.55;;;;;;;2.55;100.00;103492.34;5090446;28;20096;-78
2022/01/21 10:37:09;;;;;;;19.80;6.32;;;;;;;2.61;100.00;103491.50;5079508;28;20028;-78
2022/01/21 10:39:54;;;;;;;25.98;6.55;;;;;;;2.72;100.00;103489.78;5089964;28;20443;-77
2022/01/21 10:42:21;;;;;;;18.15;6.03;;;;;;;2.78;100.00;103490.66;5096021;28;20023;-78
2022/01/21 10:44:49;;;;;;;20.33;6.30;;;;;;;2.86;100.00;103489.81;5099471;28;20020;-77
2022/01/21 10:47:14;;;;;;;19.25;6.55;;;;;;;2.97;100.00;103488.94;5094584;28;20028;-77
2022/01/21 10:49:42;;;;;;;25.70;6.15;;;;;;;3.06;100.00;103491.53;5081988;28;20042;-77
2022/01/21 10:52:10;;;;;;;21.33;5.78;;;;;;;3.18;100.00;103495.84;5079802;28;20032;-78
2022/01/21 10:54:44;;;;;;;17.15;5.07;;;;;;;3.29;100.00;103495.88;5094509;28;20020;-77
2022/01/21 10:57:17;;;;;;;16.40;5.03;;;;;;;3.35;100.00;103488.06;5088339;28;20024;-78
2022/01/21 10:59:47;;;;;;;;;;;;;;;3.41;100.00;103483.69;5077622;28;20136;-78
2022/01/21 11:02:13;;;;;;;18.35;4.55;;;;;;;3.44;100.00;103472.41;5079881;28;19904;-78
2022/01/21 11:04:43;;;;;;;19.52;5.20;;;;;;;3.55;100.00;103472.38;5080014;28;20399;-78
2022/01/21 11:07:11;;;;;;;17.73;4.90;;;;;;;3.57;100.00;103479.31;5098583;28;20020;-77
2022/01/21 11:09:40;;;;;;;16.63;5.13;;;;;;;3.60;100.00;103462.81;5072256;28;20484;-77
2022/01/21 11:12:12;;;;;;;17.35;5.18;;;;;;;3.66;100.00;103463.69;5083622;28;20069;-77
2022/01/21 11:14:53;;;;;;;;;;;;;;;3.71;100.00;103451.53;5075662;28;20107;-77
2022/01/21 11:17:18;;;;;;;22.63;5.97;;;;;;;3.73;100.00;103455.00;5070286;28;19909;-77
2022/01/21 11:20:21;;;;;;;18.40;6.07;;;;;;;3.79;100.00;103443.69;5070739;28;20020;-77
2022/01/21 11:22:54;;;;;;;21.63;5.72;;;;;;;3.85;100.00;103437.59;5048070;28;20036;-77
2022/01/21 11:25:42;;;;;;;23.27;5.85;;;;;;;3.94;100.00;103429.72;5084630;28;20028;-77
2022/01/21 11:28:11;;;;;;;21.25;5.32;;;;;;;3.98;100.00;103424.47;5075601;28;20043;-77
2022/01/21 11:30:37;;;;;;;21.17;5.18;;;;;;;4.06;99.69;103429.69;5079929;28;20039;-77
2022/01/21 11:33:02;;;;;;;20.63;5.93;;;;;;;4.11;99.89;103417.50;5078684;28;20476;-77
2022/01/21 11:35:29;;;;;;;18.83;5.53;;;;;;;4.19;99.02;103418.31;5083181;28;20040;-78
2022/01/21 11:37:57;;;;;;;19.38;5.05;;;;;;;4.24;98.78;103423.50;5085525;28;20135;-77
2022/01/21 11:40:23;;;;;;;16.95;5.07;;;;;;;4.28;98.25;103409.56;5087809;28;20048;-77
2022/01/21 11:42:50;;;;;;;27.02;5.40;;;;;;;4.30;97.83;103411.28;5089400;28;20487;-78
2022/01/21 11:45:43;;;;;;;19.08;5.22;;;;;;;4.34;97.76;103423.41;5088171;28;20032;-77
2022/01/21 11:50:43;;;;;;;22.48;5.70;;;;;;;4.39;96.81;103416.41;5087159;28;20039;-77
2022/01/21 11:53:09;;;;;;;23.75;5.45;;;;;;;4.39;96.98;103421.63;5089366;28;20149;-77
2022/01/21 11:55:38;;;;;;;20.67;5.07;;;;;;;4.44;97.00;103419.03;5088550;28;20111;-77
2022/01/21 11:58:30;;;;;;;16.00;4.47;;;;;;;4.48;97.04;103412.03;5088413;28;20023;-77
2022/01/21 12:00:55;;;;;;;20.42;4.93;;;;;;;4.49;96.79;103408.56;5086544;28;20036;-77
2022/01/21 12:03:23;;;;;;;13.90;4.35;;;;;;;4.51;96.87;103417.22;5086588;28;20099;-77
2022/01/21 12:05:50;;;;;;;17.27;4.60;;;;;;;4.52;96.55;103408.53;5085710;28;20024;-77